Nearby METAR Reports

 

KCMA - Camarillo, California, USA
Distance from station: WSW 4mi, 7km
Updated: Tue, 28-May-2024 4:55am PDT
Haze, Overcast
Haze, Overcast
 Wind from NE
Wind: NE 5 mph, 7 km/h
Temperature: 59°F, 15°C
Dew Point: 52°F, 11°C
Humidity: 77%
Barometer: 30.00 inHg, 1015.9 hPa
Summary: Haze
Clouds: Overcast
Visibility: 6 miles, 10 km
Cloud details: Overcast 600 ft
2024/05/28 11:55 KCMA 281155Z AUTO 04004KT 6SM HZ OVC006 15/11 A3000 RMK AO2 SLP167 T01500111 10156 20144 58006
KNTD - Point Mugu Nas, California, USA
Distance from station: SSW 9mi, 15km
Updated: Tue, 28-May-2024 4:55am PDT
Mist, Overcast
Mist, Overcast
 Wind from N
Wind: N 5 mph, 7 km/h
Temperature: 55°F, 13°C
Dew Point: 55°F, 13°C
Humidity: 100%
Barometer: 30.01 inHg, 1016.3 hPa
Summary: Mist
Clouds: Overcast
Visibility: 6 miles, 10 km
Cloud details: Overcast 500 ft
2024/05/28 11:55 KNTD 281155Z AUTO 35004KT 6SM BR OVC005 13/13 A3001 RMK AO2 SLP164 T01330128 10139 20122 57006 $
 
KOXR - Oxnard, California, USA
Distance from station: WSW 10mi, 16km
Updated: Tue, 28-May-2024 4:51am PDT
Overcast
Overcast
 Wind from W
Wind: W 5 mph, 7 km/h
Temperature: 55°F, 13°C
Dew Point: 54°F, 12°C
Humidity: 94%
Barometer: 30.00 inHg, 1015.9 hPa
Clouds: Overcast
Visibility: 8 miles, 13 km
Cloud details: Overcast 700 ft
2024/05/28 11:51 KOXR 281151Z AUTO 28004KT 8SM OVC007 13/12 A3000 RMK AO2 SLP159 T01330122 10139 20133 56005 $
KVNY - Van Nuys, California, USA
Distance from station: E 31mi, 50km
Updated: Tue, 28-May-2024 4:51am PDT
Mist, Overcast
Mist, Overcast
 Wind from SE
Wind: SE 3 mph, 6 km/h
Temperature: 55°F, 13°C
Dew Point: 54°F, 12°C
Humidity: 94%
Barometer: 30.00 inHg, 1015.9 hPa
Summary: Mist
Clouds: Overcast
Visibility: 3 miles, 5 km
Cloud details: Overcast 200 ft
2024/05/28 11:51 KVNY 281151Z AUTO 14003KT 3SM BR OVC002 13/12 A3000 RMK AO2 SLP152 T01280117 10156 20122 58002 $
 
KWHP - La / Whiteman, California, USA
Distance from station: E 35mi, 56km
Updated: Mon, 27-May-2024 7:55pm PDT
NOT Current
Clear
Clear
 Wind from ESE
Wind: ESE 6 mph, 9 km/h
Temperature: 66°F, 19°C
Dew Point: 54°F, 12°C
Humidity: 64%
Barometer: 30.02 inHg, 1016.6 hPa
Clouds: Clear
Visibility: 10 miles, 16 km
2024/05/28 02:55 KWHP 280255Z 11005KT 10SM SKC 19/12 A3002
KSMO - Santa Monica, California, USA
Distance from station: ESE 36mi, 58km
Updated: Tue, 28-May-2024 4:51am PDT
Overcast
Overcast
 Wind from calm
Wind: Calm
Temperature: 57°F, 14°C
Dew Point: 55°F, 13°C
Humidity: 94%
Barometer: 30.01 inHg, 1016.3 hPa
Clouds: Overcast
Visibility: 8 miles, 13 km
Cloud details: Overcast 400 ft
2024/05/28 11:51 KSMO 281151Z AUTO 00000KT 8SM OVC004 14/13 A3001 RMK AO2 SLP162 T01390133 10144 20139 58003
 
KBUR - Burbank, California, USA
Distance from station: E 38mi, 61km
Updated: Tue, 28-May-2024 4:53am PDT
Mist, Overcast
Mist, Overcast
 Wind from SSE
Wind: SSE 6 mph, 9 km/h
Temperature: 55°F, 13°C
Dew Point: 54°F, 12°C
Humidity: 94%
Barometer: 30.00 inHg, 1015.9 hPa
Summary: Mist
Clouds: Overcast
Visibility: 4 miles, 6 km
Cloud details: Overcast 400 ft
2024/05/28 11:53 KBUR 281153Z 16005KT 4SM BR OVC004 13/12 A3000 RMK AO2 SLP151 T01280117 10144 20128 58002 $
KSDB - Sandberg, California, USA
Distance from station: NNE 40mi, 64km
Updated: Tue, 28-May-2024 4:51am PDT
Clear
Clear
 Wind from NW
Wind: NW 17 mph, 28 km/h
Temperature: 57°F, 14°C
Dew Point: 41°F, 5°C
Humidity: 55%
Barometer: 30.09 inHg, 1019 hPa
Clouds: Clear
Visibility: 10 miles, 16 km
2024/05/28 11:51 KSDB 281151Z AUTO 32015KT 10SM CLR 14/05 A3009 RMK AO2 PK WND 31026/1125 SLP143 T01440050 10178 20144 56002
 
KLAX - Los Angeles, California, USA
Distance from station: ESE 42mi, 68km
Updated: Tue, 28-May-2024 4:53am PDT
Overcast
Overcast
 Wind from calm
Wind: Calm
Temperature: 57°F, 14°C
Dew Point: 54°F, 12°C
Humidity: 88%
Barometer: 30.01 inHg, 1016.3 hPa
Clouds: Overcast
Visibility: 8 miles, 13 km
Cloud details: Overcast 700 ft
2024/05/28 11:53 KLAX 281153Z 00000KT 8SM OVC007 14/12 A3001 RMK AO2 SLP162 T01390117 10139 20133 58002
KCQT - Los Angeles, California, USA
Distance from station: ESE 45mi, 73km
Updated: Mon, 20-May-2024 7:47am PDT
NOT Current
Overcast
Overcast
 Wind from calm
Wind: Calm
Temperature: 61°F, 16°C
Dew Point: 52°F, 11°C
Humidity: 72%
Barometer: 30.01 inHg, 1016.3 hPa
Clouds: Overcast
Visibility: 10 miles, 16 km
Cloud details: Overcast 2500 ft
2024/05/20 14:47 KCQT 201447Z AUTO 00000KT 10SM OVC025 16/11 A3001 RMK AO2 SLP161 T01560111 53013
 
KHHR - Hawthorne, California, USA
Distance from station: ESE 45mi, 73km
Updated: Tue, 28-May-2024 4:53am PDT
Overcast
Overcast
 Wind from calm
Wind: Calm
Temperature: 57°F, 14°C
Dew Point: 54°F, 12°C
Humidity: 88%
Barometer: 30.01 inHg, 1016.3 hPa
Clouds: Overcast
Visibility: 10 miles, 16 km
Cloud details: Overcast 800 ft
2024/05/28 11:53 KHHR 281153Z AUTO 00000KT 10SM OVC008 14/12 A3001 RMK AO2 SLP164 T01440122 10150 20144 58002
KSBA - Santa Barbara, California, USA
Distance from station: WNW 49mi, 79km
Updated: Tue, 28-May-2024 4:53am PDT
Overcast
Overcast
 Wind from calm
Wind: Calm
Temperature: 55°F, 13°C
Dew Point: 55°F, 13°C
Humidity: 100%
Barometer: 29.99 inHg, 1015.6 hPa
Clouds: Overcast
Visibility: 8 miles, 13 km
Cloud details: Overcast 700 ft
2024/05/28 11:53 KSBA 281153Z AUTO 00000KT 8SM OVC007 13/13 A2999 RMK AO2 SLP157 T01330128 10144 20133 57002 $